Weather reports worldwide

Advertisment
Kleiner Feldberg/Taunus, Germany (10635): temperature & dewpoint: 10.09.2019 17:00:00 - 16.09.2019 17:00:00 (CEST)Kleiner Feldberg/Taunus, Germany (10635): temperature 5cm & temperature -5cm: 10.09.2019 17:00:00 - 16.09.2019 17:00:00 (CEST)Kleiner Feldberg/Taunus, Germany (10635): temperature -20cm & temperature -100cm: 10.09.2019 17:00:00 - 16.09.2019 17:00:00 (CEST)Kleiner Feldberg/Taunus, Germany (10635): wind speed & gusts: 10.09.2019 17:00:00 - 16.09.2019 17:00:00 (CEST)Kleiner Feldberg/Taunus, Germany (10635): wind direction: 10.09.2019 17:00:00 - 16.09.2019 17:00:00 (CEST)Kleiner Feldberg/Taunus, Germany (10635): visibility: 10.09.2019 17:00:00 - 16.09.2019 17:00:00 (CEST)Kleiner Feldberg/Taunus, Germany (10635): sunshine duration: 10.09.2019 17:00:00 - 16.09.2019 17:00:00 (CEST)Kleiner Feldberg/Taunus, Germany (10635): precipitation: 10.09.2019 17:00:00 - 16.09.2019 17:00:00 (CEST)
Date & Time tt [°C] td [°C] tt 5cm [°C] tt -5cm [°C] tt -20cm [°C] tt -100cm [°C] ff [km/h] ff [kn] fx [km/h] fx [kn] dd vv [km] sd [min] rr [mm]
16.09.2019 17:00:00 16,4 9,2 17,3 18,7 15,2 13,7 10 5 27 15 WNW 71 0 0,0
16.09.2019 16:00:00 16,1 10,7 17,0 18,7 15,0 13,7 10 6 21 11 WNW 50 0 0,0
16.09.2019 15:00:00 16,3 11,2 17,7 19,1 14,7 13,8 6 4 23 12 W 68 0 0,0
16.09.2019 14:00:00 15,8 11,0 17,2 18,3 14,3 13,8 6 4 18 10 WSW 55 0 0,0
16.09.2019 13:00:00 16,2 10,1 18,2 18,5 13,8 13,8 8 5 17 9 SW 55 2 0,0
16.09.2019 12:00:00 16,4 10,3 18,9 16,9 13,4 13,8 6 3 14 8 W 60 1 0,0
16.09.2019 11:00:00 15,0 9,1 16,2 15,3 13,0 13,8 7 4 13 7 SSW 62 0 0,0
16.09.2019 10:00:00 14,9 9,5 15,7 13,5 12,8 13,8 4 2 8 4 SSW 75 0 0,0
16.09.2019 09:00:00 14,0 9,4 13,7 11,6 12,8 13,7 2 1 13 7 SSE 75 1 0,0
16.09.2019 08:00:00 12,6 9,1 11,3 10,5 12,8 13,7 9 5 20 11 NNE 75 0 0,0
16.09.2019 07:00:00 12,0 9,7 10,7 10,0 12,9 13,7 12 7 21 11 N 31 0 0,0
16.09.2019 06:00:00 12,4 8,2 10,9 9,8 13,1 13,7 11 6 23 12 N 38 0 0,0
16.09.2019 05:00:00 12,6 6,2 10,3 9,2 13,3 13,7 11 6 23 13 NNW 35 0 0,0
16.09.2019 04:00:00 12,5 6,0 9,8 9,3 13,6 13,6 13 7 24 13 NNW 37 0 0,0
16.09.2019 03:00:00 12,9 4,8 10,1 9,5 13,9 13,6 13 7 23 13 NNW 39 0 0,0
16.09.2019 02:00:00 12,6 4,9 9,7 9,9 14,3 13,6 11 6 26 14 NNW 43 0 0,0
16.09.2019 01:00:00 13,3 5,2 10,8 10,3 14,7 13,6 13 7 28 15 NNW 53 0 0,0
16.09.2019 00:00:00 14,0 4,4 11,3 10,9 15,1 13,5 13 7 29 16 NW 60 0 0,0
15.09.2019 23:00:00 14,2 4,1 11,8 11,5 15,6 13,5 14 7 28 15 NW 60 0 0,0
15.09.2019 22:00:00 14,5 3,5 12,1 12,6 16,0 13,5 13 7 24 13 NW 58 0 0,0
15.09.2019 21:00:00 15,4 7,8 13,0 13,9 16,5 13,5 11 6 23 12 NW 59 0 0,0
15.09.2019 20:00:00 16,5 9,4 13,8 15,5 16,8 13,5 10 5 22 12 NW 59 22 0,0
15.09.2019 19:00:00 18,4 7,9 15,8 17,5 17,0 13,5 7 4 16 9 NW 62 54 0,0
15.09.2019 18:00:00 19,6 7,4 21,0 19,6 16,9 13,5 7 4 22 12 WNW 54 60 0,0
15.09.2019 17:00:00 20,4 6,9 22,7 21,6 16,5 13,5 8 5 25 13 WNW 52 60 0,0
15.09.2019 16:00:00 20,7 7,7 24,5 22,5 16,0 13,5 8 4 25 14 WNW 57 60 0,0
15.09.2019 15:00:00 19,8 9,3 23,5 22,8 15,3 13,5 8 4 26 14 WNW 75 60 0,0
15.09.2019 14:00:00 19,3 10,0 24,9 22,3 14,6 13,5 8 4 21 11 W 61 60 0,0
15.09.2019 13:00:00 18,0 9,5 22,5 21,2 13,8 13,5 8 4 20 11 WNW 53 60 0,0
15.09.2019 12:00:00 17,1 9,2 20,7 19,8 13,0 13,5 9 5 22 12 WNW 71 59 0,0
15.09.2019 11:00:00 16,0 9,1 18,8 17,4 12,3 13,5 8 4 19 11 WNW 70 60 0,0
15.09.2019 10:00:00 15,6 9,4 18,2 14,7 11,9 13,6 9 5 19 10 WNW 65 60 0,0
15.09.2019 09:00:00 14,3 9,1 15,1 11,2 11,7 13,5 10 6 19 10 WNW 44 60 0,0
15.09.2019 08:00:00 13,4 9,1 10,6 8,8 11,8 13,5 9 5 19 10 WNW 47 24 0,0
15.09.2019 07:00:00 13,3 9,1 10,2 8,3 12,0 13,5 8 5 19 10 W 57 0 0,0
15.09.2019 06:00:00 13,0 8,9 9,6 8,1 12,2 13,5 11 6 19 10 SW 47 0 0,0
15.09.2019 05:00:00 12,6 8,4 7,2 8,2 12,5 13,5 10 6 16 9 SSW 54 0 0,0
15.09.2019 04:00:00 13,3 8,5 7,4 8,5 12,7 13,5 10 6 16 9 S 51 0 0,0
15.09.2019 03:00:00 13,5 8,3 7,7 8,8 13,0 13,5 9 5 14 7 S 54 0 0,0
15.09.2019 02:00:00 13,7 7,9 7,5 9,0 13,3 13,4 7 4 8 4 S 50 0 0,0
15.09.2019 01:00:00 14,1 8,5 8,3 9,4 13,7 13,4 4 2 9 5 WSW 59 0 0,0
15.09.2019 00:00:00 13,5 8,3 8,1 9,9 14,1 13,4 6 3 11 6 SSW 55 0 0,0
14.09.2019 23:00:00 14,0 5,8 10,7 10,4 14,5 13,4 8 5 11 6 E 56 0 0,0
14.09.2019 22:00:00 13,6 7,5 9,3 11,2 15,0 13,4 7 4 9 5 E 52 0 0,0
14.09.2019 21:00:00 13,7 7,1 9,7 12,4 15,4 13,4 7 4 12 7 E 52 0 0,0
14.09.2019 20:00:00 14,0 7,3 10,6 14,1 15,8 13,3 8 5 13 7 E 58 23 0,0
14.09.2019 19:00:00 15,3 8,2 13,8 16,2 16,0 13,3 7 4 11 6 E 49 54 0,0
14.09.2019 18:00:00 16,8 8,4 19,8 17,9 15,9 13,4 5 3 12 7 NNE 61 57 0,0
14.09.2019 17:00:00 16,1 9,3 17,2 18,9 15,8 13,4 3 2 11 6 E 50 21 0,0
14.09.2019 16:00:00 17,4 9,3 19,6 21,7 15,3 13,4 5 3 13 7 NNE 54 55 0,0
14.09.2019 15:00:00 18,2 10,0 22,4 20,9 14,8 13,4 2 1 14 7 W 47 50 0,0
14.09.2019 14:00:00 15,9 9,1 19,9 19,7 14,2 13,4 4 2 13 7 NE 40 15 0,0
14.09.2019 13:00:00 15,8 9,5 19,8 21,1 13,5 13,4 4 2 11 6 NNE 44 55 0,0
14.09.2019 12:00:00 14,1 9,4 16,9 17,6 12,8 13,4 4 2 9 5 N 63 28 0,0
14.09.2019 11:00:00 13,9 8,9 16,8 16,7 12,2 13,4 4 2 22 12 SE 35 60 0,0
14.09.2019 10:00:00 12,2 8,5 14,4 13,7 11,9 13,4 15 8 25 13 ESE 44 58 0,0
14.09.2019 09:00:00 11,5 8,5 12,0 10,9 11,9 13,4 13 7 24 13 E 62 60 0,0
14.09.2019 08:00:00 10,4 8,2 8,7 8,9 12,1 13,4 14 8 22 12 E 39 24 0,0
14.09.2019 07:00:00 10,6 8,0 8,2 8,8 12,3 13,4 13 7 23 12 ENE 42 0 0,0
14.09.2019 06:00:00 10,0 8,5 8,3 9,1 12,6 13,4 15 8 24 13 ENE 41 0 0,0
14.09.2019 05:00:00 10,2 9,2 8,9 9,6 12,8 13,3 16 9 27 14 E 25 0 0,0
14.09.2019 04:00:00 10,8 9,5 9,4 9,9 13,1 13,3 16 9 29 15 ENE 32 0 0,0
14.09.2019 03:00:00 11,2 8,7 9,2 10,4 13,3 13,3 17 9 32 17 ENE 52 0 0,0
14.09.2019 02:00:00 10,4 9,7 9,5 11,0 13,6 13,3 18 10 41 22 ENE 18 0 0,0
14.09.2019 01:00:00 11,4 9,7 10,7 11,6 13,9 13,3 24 13 37 20 NE 40 0 0,0
14.09.2019 00:00:00 11,8 10,7 11,4 12,2 14,1 13,3 19 10 31 17 NE 25 0 0,0
13.09.2019 23:00:00 12,6 10,4 12,1 12,9 14,3 13,2 19 10 35 19 NE 41 0 0,0
13.09.2019 22:00:00 13,1 11,3 12,7 13,5 14,6 13,2 15 8 27 14 NNE 30 0 0,0
13.09.2019 21:00:00 13,4 13,2 13,0 14,0 14,8 13,2 14 8 24 13 N 3,5 0 0,0
13.09.2019 20:00:00 13,5 13,0 13,1 14,7 15,0 13,2 11 6 19 10 NNW 7 0 0,0
13.09.2019 19:00:00 14,2 12,6 13,5 16,2 15,0 13,2 6 4 16 9 NW 19 10 0,0
13.09.2019 18:00:00 15,8 12,5 17,4 17,7 14,9 13,2 7 4 16 9 NW 34 22 0,0
13.09.2019 17:00:00 15,6 12,5 17,4 18,8 14,6 13,2 10 5 20 11 NNW 48 12 0,0
13.09.2019 16:00:00 16,7 13,3 19,4 19,1 14,2 13,2 6 3 20 11 NW 49 10 0,0
13.09.2019 15:00:00 16,0 12,8 17,9 18,5 13,8 13,2 8 4 19 10 WNW 39 13 0,0
13.09.2019 14:00:00 14,8 12,8 16,2 16,7 13,5 13,2 6 3 20 11 NW 34 1 0,0
13.09.2019 13:00:00 14,7 13,4 16,5 16,3 13,2 13,2 7 4 21 12 NW 29 1 0,0
13.09.2019 12:00:00 13,7 12,8 14,7 16,0 12,9 13,2 9 5 23 12 NW 23 1 0,0
13.09.2019 11:00:00 13,1 13,0 13,8 14,1 12,7 13,2 10 5 22 12 NW 0,2 0 0,0
13.09.2019 10:00:00 12,7 12,6 13,1 13,4 12,6 13,2 9 5 23 13 WNW 0,2 0 0,0
13.09.2019 09:00:00 12,5 12,4 12,7 12,6 12,5 13,2 10 6 21 12 WNW 0,2 0 0,0
13.09.2019 08:00:00 12,4 12,2 12,5 12,2 12,5 13,2 11 6 23 12 WNW 11 0 0,0
13.09.2019 07:00:00 12,2 12,1 12,2 11,9 12,4 13,2 11 6 29 16 WNW 1,1 0 0,0
13.09.2019 06:00:00 12,3 12,2 12,3 11,7 12,4 13,2 14 8 30 16 WNW 0,5 0 0,0
13.09.2019 05:00:00 12,4 12,3 11,9 10,8 12,6 13,2 13 7 29 16 WNW 10 0 0,0
13.09.2019 04:00:00 12,5 12,2 11,7 10,9 12,7 13,2 14 7 28 15 NW 12 0 0,0
13.09.2019 03:00:00 12,7 12,2 11,7 11,0 12,8 13,2 14 7 28 15 NW 32 0 0,0
13.09.2019 02:00:00 13,2 12,1 11,9 11,2 13,0 13,1 15 8 32 17 NW 46 0 0,0
13.09.2019 01:00:00 13,4 11,9 11,7 11,3 13,2 13,1 14 8 29 16 WNW 53 0 0,0
13.09.2019 00:00:00 13,6 11,6 12,2 11,5 13,4 13,1 14 8 28 15 WNW 54 0 0,0
12.09.2019 23:00:00 13,7 11,7 12,1 12,0 13,7 13,1 14 7 30 16 WNW 62 0 0,0
12.09.2019 22:00:00 14,3 11,6 12,8 12,4 13,9 13,1 13 7 31 17 W 70 0 0,0
12.09.2019 21:00:00 14,7 11,5 13,2 13,1 14,2 13,1 13 7 29 16 W 74 0 0,0
12.09.2019 20:00:00 14,9 12,0 13,4 14,3 14,3 13,1 10 5 22 12 W 75 32 0,0
12.09.2019 19:00:00 16,4 12,7 14,7 16,1 14,3 13,1 6 4 25 14 W 75 24 0,0
12.09.2019 18:00:00 16,3 13,4 16,1 17,1 14,1 13,1 11 6 24 13 SW 65 8 0,0
12.09.2019 17:00:00 16,0 13,5 16,0 17,5 13,9 13,1 7 4 22 12 SW 58 0 0,0
12.09.2019 16:00:00 16,1 13,5 16,7 17,8 13,5 13,1 9 5 23 12 W 67 9 0,0
12.09.2019 15:00:00 15,1 14,1 16,3 16,5 13,2 13,1 8 4 24 13 W 43 0 0,5
12.09.2019 14:00:00 13,9 13,5 14,1 15,4 13,0 13,1 7 4 22 12 WNW 1,6 0 0,7
12.09.2019 13:00:00 13,9 13,7 14,3 15,2 12,8 13,1 8 4 17 9 WSW 1,7 0 0,0
12.09.2019 12:00:00 13,1 12,8 13,6 14,4 12,6 13,0 7 4 14 8 SW 0,5 0 0,4
12.09.2019 11:00:00 13,0 12,1 13,5 14,5 12,3 13,0 5 3 14 7 W 18 0 0,0
12.09.2019 10:00:00 12,7 12,1 13,5 13,6 12,1 13,0 8 4 20 11 WNW 12 0 0,0
12.09.2019 09:00:00 11,5 11,3 11,8 11,9 12,1 13,0 10 5 21 11 WNW 0,8 0 0,0
12.09.2019 08:00:00 11,0 10,4 11,1 11,3 12,1 13,0 8 4 18 10 WNW 26 0 0,0
12.09.2019 07:00:00 11,6 9,4 11,1 11,1 12,1 13,0 6 3 19 10 W 45 0 0,0
12.09.2019 06:00:00 11,7 8,8 11,0 11,1 12,2 13,0 8 4 23 13 W 56 0 0,0
12.09.2019 05:00:00 11,7 8,6 10,6 11,1 12,2 13,0 9 5 37 20 W 54 0 0,0
12.09.2019 04:00:00 11,5 9,0 10,4 11,1 12,3 13,0 11 6 27 15 W 12 0 0,1
12.09.2019 03:00:00 11,3 9,0 10,5 11,0 12,4 12,9 10 5 29 15 W 58 0 0,2
12.09.2019 02:00:00 11,4 8,4 10,3 11,0 12,5 12,9 12 6 26 14 W 4,0 0 0,0
12.09.2019 01:00:00 11,3 8,1 10,4 11,1 12,7 12,9 9 5 25 13 WSW 54 0 0,1
12.09.2019 00:00:00 11,3 8,2 10,3 11,2 12,8 12,9 10 6 28 15 W 23 0 0,1
11.09.2019 23:00:00 11,6 7,6 11,4 11,3 13,0 12,9 9 5 29 15 W 58 0 0,0
11.09.2019 22:00:00 11,3 7,3 10,5 11,5 13,3 12,9 10 6 38 21 W 10 0 0,0
11.09.2019 21:00:00 12,1 7,2 11,8 12,0 13,6 12,9 11 6 34 18 W 56 0 0,0
11.09.2019 20:00:00 12,2 7,4 11,8 12,8 13,8 12,9 13 7 28 15 W 47 0 0,0
11.09.2019 19:00:00 13,2 6,7 13,0 14,0 14,0 12,9 9 5 23 12 W 50 0 0,0
11.09.2019 18:00:00 14,0 6,5 14,1 15,6 14,1 12,9 13 7 27 15 W 59 2 0,0
11.09.2019 17:00:00 15,0 6,1 15,4 16,8 13,9 12,9 11 6 25 14 WSW 66 0 0,0
11.09.2019 16:00:00 15,5 6,8 16,3 18,2 13,6 12,9 6 3 30 16 WSW 56 18 0,0
11.09.2019 15:00:00 15,2 5,7 16,6 19,2 13,0 13,0 10 5 30 16 WSW 64 41 0,0
11.09.2019 14:00:00 16,0 5,5 19,6 19,6 12,3 13,0 14 8 27 14 SW 75 60 0,0
11.09.2019 13:00:00 15,2 5,8 18,5 18,9 11,4 13,0 11 6 26 14 SW 59 60 0,0
11.09.2019 12:00:00 14,6 6,1 17,6 17,8 10,5 13,0 11 6 26 14 SW 50 59 0,0
11.09.2019 11:00:00 13,6 4,5 15,7 15,2 9,7 13,0 10 6 21 11 SW 62 60 0,0
11.09.2019 10:00:00 13,1 3,9 14,9 11,9 9,2 13,1 8 4 15 8 SW 42 60 0,0
11.09.2019 09:00:00 12,1 3,1 12,4 8,0 9,0 13,1 8 5 14 7 SW 57 60 0,0
11.09.2019 08:00:00 10,6 2,6 7,5 4,9 9,2 13,1 6 3 9 5 SW 51 30 0,0
11.09.2019 07:00:00 9,8 2,6 3,9 4,5 9,4 13,1 4 2 9 5 W 67 0 0,0
11.09.2019 06:00:00 10,0 3,1 3,8 4,7 9,6 13,1 4 2 9 5 W 54 0 0,0
11.09.2019 05:00:00 9,7 3,0 3,8 4,9 9,9 13,1 4 2 6 4 WNW 60 0 0,0
11.09.2019 04:00:00 10,2 3,1 4,6 5,2 10,1 13,1 4 2 6 4 WNW 51 0 0,0
11.09.2019 03:00:00 10,6 2,9 5,0 5,5 10,4 13,1 4 2 6 4 NW 58 0 0,0
11.09.2019 02:00:00 10,3 2,0 4,2 5,8 10,7 13,1 4 2 5 3 NW 65 0 0,0
11.09.2019 01:00:00 11,1 2,3 5,6 6,3 11,1 13,1 5 3 6 4 NNW 58 0 0,0
11.09.2019 00:00:00 10,9 1,9 5,8 6,7 11,4 13,1 5 3 8 4 N 68 0 0,0
10.09.2019 23:00:00 10,9 2,8 6,1 7,3 11,8 13,1 5 3 8 5 N 68 0 0,0
10.09.2019 22:00:00 11,0 1,9 5,4 8,1 12,3 13,1 6 3 9 5 N 56 0 0,0
10.09.2019 21:00:00 11,7 -0,3 6,8 9,6 12,7 13,1 4 2 8 5 NNW 72 0 0,0
10.09.2019 20:00:00 10,8 2,6 6,8 11,4 12,9 13,2 6 3 13 7 NW 69 33 0,0
10.09.2019 19:00:00 13,4 5,0 11,3 13,4 12,9 13,2 4 2 18 10 NW 50 53 0,0
10.09.2019 18:00:00 13,8 5,5 16,0 15,5 12,7 13,2 5 3 16 9 NW 44 57 0,0
10.09.2019 17:00:00 13,8 4,9 15,4 16,0 12,3 13,2 3 2 16 8 W 55 45 0,0

tt = temperature
td = dewpoint
tt 5cm = temperature 5cm
tt -5cm = temperature -5cm
tt -20cm = temperature -20cm
tt -100cm = temperature -100cm
ff = wind speed
fx = gusts
dd = wind direction
vv = visibility
sd = sunshine duration
rr = precipitation

Next stations